Time;durP1;ratioP1;P1;durP2;ratioP2;P2;SDS_P1;SDS_P2;PMS_P1;PMS_P2;Temp;Humidity;BMP_temperature;BMP_pressure;BME280_temperature;BME280_humidity;BME280_pressure;Samples;Min_cycle;Max_cycle;Signal;HPM_P1;HPM_P2
2023/07/16 00:01:31;;;;;;;;;;;16.20;99.90;;;;;;5079400;28;19946;-89
2023/07/16 00:04:02;;;;;;;;;;;16.20;99.90;;;;;;5095012;28;19932;-88
2023/07/16 00:06:28;;;;;;;;;;;16.20;99.90;;;;;;5094734;28;19923;-87
2023/07/16 00:08:54;;;;;;;;;;;16.20;99.90;;;;;;5110959;28;19924;-87
2023/07/16 00:11:32;;;;;;;;;;;;;;;;;;;;;
2023/07/16 00:13:58;;;;;;;;;;;16.20;99.90;;;;;;5093319;28;19924;-87
2023/07/16 00:16:24;;;;;;;;;;;16.10;99.90;;;;;;5076211;28;19928;-87
2023/07/16 00:18:50;;;;;;;;;;;16.10;99.90;;;;;;5110638;28;19930;-86
2023/07/16 00:21:16;;;;;;;;;;;16.10;99.90;;;;;;5076301;28;19924;-87
2023/07/16 00:23:42;;;;;;;;;;;16.10;99.90;;;;;;5090198;28;20343;-87
2023/07/16 00:26:07;;;;;;;;;;;15.60;99.90;;;;;;5104906;28;19986;-87
2023/07/16 00:28:43;;;;;;;;;;;16.10;99.90;;;;;;5110048;28;19924;-88
2023/07/16 00:31:09;;;;;;;;;;;16.10;99.90;;;;;;5076207;28;19947;-87
2023/07/16 00:33:35;;;;;;;;;;;16.00;99.90;;;;;;5076358;28;19924;-86
2023/07/16 00:36:01;;;;;;;;;;;16.00;99.90;;;;;;5075317;28;19931;-86
2023/07/16 00:38:27;;;;;;;;;;;16.00;99.90;;;;;;5100996;28;19928;-87
2023/07/16 00:40:53;;;;;;;;;;;15.90;99.90;;;;;;5124000;27;19931;-86
2023/07/16 00:43:21;;;;;;;;;;;15.90;99.90;;;;;;5092876;28;20379;-87
2023/07/16 00:45:47;;;;;;;;;;;15.90;99.90;;;;;;5058882;28;19947;-87
2023/07/16 00:48:13;;;;;;;;;;;15.50;99.90;;;;;;5076071;28;19925;-86
2023/07/16 00:50:39;;;;;;;;;;;15.90;99.90;;;;;;5072161;28;19924;-86
2023/07/16 00:53:12;;;;;;;;;;;15.90;99.90;;;;;;5103984;28;19928;-89
2023/07/16 00:55:38;;;;;;;;;;;15.80;99.90;;;;;;5075841;28;19935;-87
2023/07/16 00:58:19;;;;;;;;;;;15.80;99.90;;;;;;5075299;28;19924;-87
2023/07/16 01:00:45;;;;;;;;;;;15.80;99.90;;;;;;5075782;28;19935;-86
2023/07/16 01:03:12;;;;;;;;;;;15.80;99.90;;;;;;5092737;28;19924;-85
2023/07/16 01:05:38;;;;;;;;;;;15.80;99.90;;;;;;5075797;28;19969;-86
2023/07/16 01:08:06;;;;;;;;;;;15.90;99.90;;;;;;5092405;28;19928;-85
2023/07/16 01:10:35;;;;;;;;;;;15.90;99.90;;;;;;5067642;28;19928;-86
2023/07/16 01:13:01;;;;;;;;;;;16.00;99.90;;;;;;5074706;28;19924;-86
2023/07/16 01:15:27;;;;;;;;;;;16.00;99.90;;;;;;5092401;28;19928;-86
2023/07/16 01:17:55;;;;;;;;;;;15.70;99.90;;;;;;5075634;28;19931;-88
2023/07/16 01:20:26;;;;;;;;;;;16.00;99.90;;;;;;5109013;28;19928;-84
2023/07/16 01:23:05;;;;;;;;;;;16.00;99.90;;;;;;5126333;28;19928;-86
2023/07/16 01:25:34;;;;;;;;;;;16.00;99.90;;;;;;5109498;28;19932;-85
2023/07/16 01:28:05;;;;;;;;;;;15.80;99.90;;;;;;5075045;28;20417;-87
2023/07/16 01:30:32;;;;;;;;;;;16.00;99.90;;;;;;5109336;28;20272;-86
2023/07/16 01:33:03;;;;;;;;;;;15.90;99.90;;;;;;5074847;28;19932;-86
2023/07/16 01:35:29;;;;;;;;;;;16.00;99.90;;;;;;5052975;28;20360;-86
2023/07/16 01:37:55;;;;;;;;;;;16.00;99.90;;;;;;5065709;28;19931;-86
2023/07/16 01:40:23;;;;;;;;;;;16.00;99.90;;;;;;5108552;28;19931;-87
2023/07/16 01:42:49;;;;;;;;;;;15.90;99.90;;;;;;5091959;28;20356;-86
2023/07/16 01:45:14;;;;;;;;;;;15.90;99.90;;;;;;5074780;28;19924;-86
2023/07/16 01:47:46;;;;;;;;;;;15.90;99.90;;;;;;5111987;28;19924;-87
2023/07/16 01:50:12;;;;;;;;;;;15.90;99.90;;;;;;5079229;28;19923;-87
2023/07/16 01:52:37;;;;;;;;;;;15.90;99.90;;;;;;5078461;28;19970;-87
2023/07/16 01:55:03;;;;;;;;;;;15.90;99.90;;;;;;5113272;28;19924;-86
2023/07/16 01:57:29;;;;;;;;;;;15.80;99.90;;;;;;5096532;28;19924;-86
2023/07/16 01:59:54;;;;;;;;;;;15.80;99.90;;;;;;5080188;28;20428;-86
2023/07/16 02:02:20;;;;;;;;;;;15.80;99.90;;;;;;5062692;28;19924;-86
2023/07/16 02:04:45;;;;;;;;;;;15.80;99.90;;;;;;5079815;28;20015;-86
2023/07/16 02:07:11;;;;;;;;;;;15.80;99.90;;;;;;5060080;28;19925;-87
2023/07/16 02:09:37;;;;;;;;;;;15.80;99.90;;;;;;5103261;28;19983;-87
2023/07/16 02:12:02;;;;;;;;;;;15.80;99.90;;;;;;5100033;28;19924;-89
2023/07/16 02:14:28;;;;;;;;;;;15.80;99.90;;;;;;5097336;28;19932;-86
2023/07/16 02:16:53;;;;;;;;;;;15.70;99.90;;;;;;5064227;28;19947;-86
2023/07/16 02:19:19;;;;;;;;;;;15.70;99.90;;;;;;5080551;28;19928;-86
2023/07/16 02:21:45;;;;;;;;;;;15.70;99.90;;;;;;5064098;28;20257;-86
2023/07/16 02:24:10;;;;;;;;;;;15.60;99.90;;;;;;5059953;28;19924;-87
2023/07/16 02:26:36;;;;;;;;;;;15.60;99.90;;;;;;5094699;28;20309;-87
2023/07/16 02:29:02;;;;;;;;;;;15.60;99.90;;;;;;5095295;28;19955;-87
2023/07/16 02:31:27;;;;;;;;;;;15.60;99.90;;;;;;5095155;28;19924;-85
2023/07/16 02:33:53;;;;;;;;;;;15.60;99.90;;;;;;5095379;28;19924;-88
2023/07/16 02:36:18;;;;;;;;;;;15.60;99.90;;;;;;5078379;28;19924;-86
2023/07/16 02:38:44;;;;;;;;;;;15.60;99.90;;;;;;5112109;28;19928;-87
2023/07/16 02:41:09;;;;;;;;;;;15.70;99.90;;;;;;5094154;28;19971;-87
2023/07/16 02:43:35;;;;;;;;;;;15.70;99.90;;;;;;5095117;28;19924;-85
2023/07/16 02:46:01;;;;;;;;;;;15.70;99.90;;;;;;5094209;28;19974;-87
2023/07/16 02:48:26;;;;;;;;;;;15.70;99.90;;;;;;5061544;28;19935;-86
2023/07/16 02:50:52;;;;;;;;;;;15.80;99.90;;;;;;5061019;28;20383;-86
2023/07/16 02:53:17;;;;;;;;;;;15.80;99.90;;;;;;5077659;28;19977;-86
2023/07/16 02:55:44;;;;;;;;;;;15.90;99.90;;;;;;5085109;28;19924;-87
2023/07/16 02:58:10;;;;;;;;;;;15.90;99.90;;;;;;5093272;28;19924;-87
2023/07/16 03:00:38;;;;;;;;;;;15.90;99.90;;;;;;5060578;28;19924;-87
2023/07/16 03:03:04;;;;;;;;;;;15.90;99.90;;;;;;5094220;28;20283;-89
2023/07/16 03:05:29;;;;;;;;;;;15.90;99.90;;;;;;5111620;28;19931;-86
2023/07/16 03:07:55;;;;;;;;;;;15.90;99.90;;;;;;5111095;28;19999;-86
2023/07/16 03:10:21;;;;;;;;;;;15.90;99.90;;;;;;5060859;28;19928;-86
2023/07/16 03:12:46;;;;;;;;;;;15.90;99.90;;;;;;5093633;28;20391;-85
2023/07/16 03:15:12;;;;;;;;;;;15.90;99.90;;;;;;5061004;28;20391;-86
2023/07/16 03:17:37;;;;;;;;;;;15.90;99.90;;;;;;5057438;28;19963;-86
2023/07/16 03:20:05;;;;;;;;;;;15.90;99.90;;;;;;5128442;27;20386;-87
2023/07/16 03:22:30;;;;;;;;;;;15.90;99.90;;;;;;5107799;28;19928;-86
2023/07/16 03:24:56;;;;;;;;;;;15.90;99.90;;;;;;5088054;28;19935;-86
2023/07/16 03:27:22;;;;;;;;;;;15.80;99.90;;;;;;5093245;28;19924;-86
2023/07/16 03:29:47;;;;;;;;;;;15.80;99.90;;;;;;5090436;28;20264;-87
2023/07/16 03:32:13;;;;;;;;;;;15.80;99.90;;;;;;5093818;28;20023;-86
2023/07/16 03:34:42;;;;;;;;;;;15.70;99.90;;;;;;5076302;28;19924;-86
2023/07/16 03:37:07;;;;;;;;;;;15.70;99.90;;;;;;5096641;28;19928;-87
2023/07/16 03:39:33;;;;;;;;;;;15.70;99.90;;;;;;5111156;28;19924;-87
2023/07/16 03:41:58;;;;;;;;;;;15.70;99.90;;;;;;5076411;28;19924;-86
2023/07/16 03:44:24;;;;;;;;;;;15.70;99.90;;;;;;5060243;28;19999;-86
2023/07/16 03:46:50;;;;;;;;;;;15.70;99.90;;;;;;5094787;28;20012;-86
2023/07/16 03:49:15;;;;;;;;;;;15.70;99.90;;;;;;5093467;28;20097;-86
2023/07/16 03:51:41;;;;;;;;;;;15.70;99.90;;;;;;5098759;28;19924;-85
2023/07/16 03:54:06;;;;;;;;;;;15.70;99.90;;;;;;5108737;28;19934;-87
2023/07/16 03:56:32;;;;;;;;;;;15.70;99.90;;;;;;5092838;28;19930;-86
2023/07/16 03:58:58;;;;;;;;;;;15.70;99.90;;;;;;5076935;28;20002;-86
2023/07/16 04:01:23;;;;;;;;;;;15.70;99.90;;;;;;5110299;28;19974;-86
2023/07/16 04:03:49;;;;;;;;;;;15.70;99.90;;;;;;5110520;28;19924;-85
2023/07/16 04:06:15;;;;;;;;;;;15.70;99.90;;;;;;5101999;28;20330;-85
2023/07/16 04:08:40;;;;;;;;;;;15.70;99.90;;;;;;5109896;28;19924;-87
2023/07/16 04:11:06;;;;;;;;;;;15.70;99.90;;;;;;5075367;28;19954;-86
2023/07/16 04:13:32;;;;;;;;;;;15.80;99.90;;;;;;5110092;28;19973;-86
2023/07/16 04:15:58;;;;;;;;;;;15.80;99.90;;;;;;5093390;28;19924;-86
2023/07/16 04:18:24;;;;;;;;;;;15.80;99.90;;;;;;5092513;28;19932;-85
2023/07/16 04:20:50;;;;;;;;;;;15.80;99.90;;;;;;5072668;28;19925;-86
2023/07/16 04:23:16;;;;;;;;;;;15.80;99.90;;;;;;5110100;28;19949;-87
2023/07/16 04:25:41;;;;;;;;;;;15.90;99.90;;;;;;5075695;28;19924;-87
2023/07/16 04:28:09;;;;;;;;;;;15.90;99.90;;;;;;5074121;28;19950;-87
2023/07/16 04:30:37;;;;;;;;;;;15.90;99.90;;;;;;5061865;28;20012;-85
2023/07/16 04:33:03;;;;;;;;;;;15.90;99.90;;;;;;5075425;28;19979;-87
2023/07/16 04:35:28;;;;;;;;;;;15.90;99.90;;;;;;5110065;28;19924;-86
2023/07/16 04:37:54;;;;;;;;;;;16.00;99.90;;;;;;5092419;28;19930;-86
2023/07/16 04:40:19;;;;;;;;;;;16.00;99.90;;;;;;5092777;28;20010;-86
2023/07/16 04:42:45;;;;;;;;;;;16.10;99.90;;;;;;5060296;28;19932;-87
2023/07/16 04:45:11;;;;;;;;;;;16.10;99.90;;;;;;5061569;28;20216;-87
2023/07/16 04:47:37;;;;;;;;;;;16.10;99.90;;;;;;5079059;28;19954;-86
2023/07/16 04:50:02;;;;;;;;;;;16.10;99.90;;;;;;5112511;28;20002;-86
2023/07/16 04:52:28;;;;;;;;;;;16.10;99.90;;;;;;5109001;28;20367;-86
2023/07/16 04:54:54;;;;;;;;;;;16.20;99.90;;;;;;5075853;28;19976;-87
2023/07/16 04:57:19;;;;;;;;;;;16.20;99.90;;;;;;5074573;28;19931;-86
2023/07/16 04:59:45;;;;;;;;;;;16.30;99.90;;;;;;5053625;28;19985;-86
2023/07/16 05:02:10;;;;;;;;;;;16.30;99.90;;;;;;5058799;28;19924;-87
2023/07/16 05:04:36;;;;;;;;;;;16.30;99.90;;;;;;5092705;28;19924;-86
2023/07/16 05:07:02;;;;;;;;;;;16.30;99.90;;;;;;5058924;28;19974;-86
2023/07/16 05:09:28;;;;;;;;;;;16.40;99.90;;;;;;5092452;28;20015;-86
2023/07/16 05:11:54;;;;;;;;;;;16.40;99.90;;;;;;5082764;28;19960;-86
2023/07/16 05:14:20;;;;;;;;;;;16.40;99.90;;;;;;5078881;28;19925;-85
2023/07/16 05:16:45;;;;;;;;;;;16.40;99.90;;;;;;5118983;28;19919;-87
2023/07/16 05:19:11;;;;;;;;;;;16.50;99.90;;;;;;5096031;28;19937;-86
2023/07/16 05:21:37;;;;;;;;;;;16.50;99.90;;;;;;5083956;28;19946;-88
2023/07/16 05:24:03;;;;;;;;;;;16.50;99.90;;;;;;5099808;28;19925;-85
2023/07/16 05:26:28;;;;;;;;;;;16.50;99.90;;;;;;5097798;28;20370;-86
2023/07/16 05:28:54;;;;;;;;;;;16.50;99.90;;;;;;5096848;28;19928;-86
2023/07/16 05:31:19;;;;;;;;;;;16.60;99.90;;;;;;5081081;28;19927;-86
2023/07/16 05:33:45;;;;;;;;;;;16.60;99.90;;;;;;5096154;28;20330;-86
2023/07/16 05:36:11;;;;;;;;;;;16.60;99.90;;;;;;5079533;28;19947;-86
2023/07/16 05:38:36;;;;;;;;;;;16.80;99.90;;;;;;5061238;28;19974;-85
2023/07/16 05:41:02;;;;;;;;;;;16.90;99.90;;;;;;5075038;28;20008;-88
2023/07/16 05:43:28;;;;;;;;;;;17.00;99.90;;;;;;5079251;28;19924;-85
2023/07/16 05:45:54;;;;;;;;;;;17.00;99.90;;;;;;5112245;28;20455;-86
2023/07/16 05:48:19;;;;;;;;;;;17.10;99.90;;;;;;5119116;27;19924;-85
2023/07/16 05:50:45;;;;;;;;;;;17.10;99.90;;;;;;5112724;28;20017;-85
2023/07/16 05:53:11;;;;;;;;;;;17.10;99.90;;;;;;5078745;28;20030;-86
2023/07/16 05:55:39;;;;;;;;;;;17.10;99.90;;;;;;5095786;28;20321;-85
2023/07/16 05:58:04;;;;;;;;;;;17.10;99.90;;;;;;5095109;28;19953;-85
2023/07/16 06:00:30;;;;;;;;;;;17.10;99.90;;;;;;5112960;28;19924;-86
2023/07/16 06:02:55;;;;;;;;;;;17.10;99.90;;;;;;5095732;28;20380;-85
2023/07/16 06:05:21;;;;;;;;;;;17.10;99.90;;;;;;5113096;28;19931;-86
2023/07/16 06:07:47;;;;;;;;;;;17.10;99.90;;;;;;5112770;27;19928;-86
2023/07/16 06:10:12;;;;;;;;;;;17.20;99.90;;;;;;5062016;28;20349;-85
2023/07/16 06:12:38;;;;;;;;;;;17.20;99.90;;;;;;5094794;28;19972;-86
2023/07/16 06:15:04;;;;;;;;;;;17.30;99.90;;;;;;5079095;28;19924;-86
2023/07/16 06:17:30;;;;;;;;;;;17.30;99.90;;;;;;5107282;28;19931;-86
2023/07/16 06:19:57;;;;;;;;;;;17.40;99.90;;;;;;5062125;28;20358;-85
2023/07/16 06:22:23;;;;;;;;;;;17.40;99.90;;;;;;5061638;28;20033;-85
2023/07/16 06:24:48;;;;;;;;;;;17.40;99.90;;;;;;5095606;28;20057;-85
2023/07/16 06:27:14;;;;;;;;;;;17.50;99.90;;;;;;5094164;28;19993;-86
2023/07/16 06:29:40;;;;;;;;;;;17.50;99.90;;;;;;5095551;28;19973;-86
2023/07/16 06:32:06;;;;;;;;;;;17.50;99.90;;;;;;5094622;28;20001;-85
2023/07/16 06:34:31;;;;;;;;;;;17.60;99.90;;;;;;5087315;28;19930;-85
2023/07/16 06:36:57;;;;;;;;;;;17.60;99.90;;;;;;5078106;28;20379;-86
2023/07/16 06:39:23;;;;;;;;;;;17.60;99.90;;;;;;5112426;28;19924;-84
2023/07/16 06:41:49;;;;;;;;;;;17.60;99.90;;;;;;5128377;27;19931;-85
2023/07/16 06:44:15;;;;;;;;;;;17.60;99.90;;;;;;5111785;28;20291;-85
2023/07/16 06:46:40;;;;;;;;;;;17.60;99.90;;;;;;5111834;28;19924;-84
2023/07/16 06:49:07;;;;;;;;;;;17.60;99.90;;;;;;5078165;28;19931;-87
2023/07/16 06:51:33;;;;;;;;;;;17.70;99.90;;;;;;5094235;28;19975;-85
2023/07/16 06:53:59;;;;;;;;;;;17.70;99.90;;;;;;5076031;28;19924;-86
2023/07/16 06:56:24;;;;;;;;;;;17.80;99.90;;;;;;5093920;28;19928;-86
2023/07/16 06:58:50;;;;;;;;;;;17.90;99.90;;;;;;5094682;28;19928;-86
2023/07/16 07:01:15;;;;;;;;;;;17.90;99.90;;;;;;5077822;28;19932;-85
2023/07/16 07:03:44;;;;;;;;;;;18.00;99.90;;;;;;5077898;28;19931;-84
2023/07/16 07:06:10;;;;;;;;;;;18.00;99.90;;;;;;5077740;28;19924;-85
2023/07/16 07:08:36;;;;;;;;;;;18.00;99.90;;;;;;5077812;28;19924;-85
2023/07/16 07:11:02;;;;;;;;;;;18.10;99.90;;;;;;5077004;28;20066;-89
2023/07/16 07:13:29;;;;;;;;;;;18.10;99.90;;;;;;5094167;28;19924;-84
2023/07/16 07:15:57;;;;;;;;;;;18.10;99.90;;;;;;5091523;28;19928;-85
2023/07/16 07:18:23;;;;;;;;;;;18.20;99.90;;;;;;5093134;28;20006;-86
2023/07/16 07:20:49;;;;;;;;;;;18.30;99.90;;;;;;5110891;28;20012;-85
2023/07/16 07:23:18;;;;;;;;;;;18.40;99.90;;;;;;5077520;28;20062;-86
2023/07/16 07:25:48;;;;;;;;;;;18.40;99.90;;;;;;5090513;28;19924;-88
2023/07/16 07:28:13;;;;;;;;;;;18.40;99.90;;;;;;5107557;28;20299;-85
2023/07/16 07:30:39;;;;;;;;;;;18.40;99.90;;;;;;5094184;28;20022;-86
2023/07/16 07:33:05;;;;;;;;;;;18.40;99.90;;;;;;5060553;28;19924;-86
2023/07/16 07:35:30;;;;;;;;;;;18.30;99.90;;;;;;5077599;28;19995;-86
2023/07/16 07:37:56;;;;;;;;;;;18.30;99.90;;;;;;5060810;28;19946;-85
2023/07/16 07:40:21;;;;;;;;;;;18.30;99.90;;;;;;5094118;28;19931;-85
2023/07/16 07:42:49;;;;;;;;;;;18.40;99.90;;;;;;5060144;28;20007;-85
2023/07/16 07:45:15;;;;;;;;;;;18.50;99.90;;;;;;5109904;28;19924;-85
2023/07/16 07:47:41;;;;;;;;;;;18.70;99.90;;;;;;5076996;28;20026;-86
2023/07/16 07:50:07;;;;;;;;;;;19.00;99.90;;;;;;5111015;28;19932;-87
2023/07/16 07:52:32;;;;;;;;;;;18.80;99.90;;;;;;5075943;28;19946;-84
2023/07/16 07:54:58;;;;;;;;;;;18.80;99.90;;;;;;5060384;28;19974;-84
2023/07/16 07:57:24;;;;;;;;;;;18.70;99.90;;;;;;5082184;28;19924;-86
2023/07/16 07:59:51;;;;;;;;;;;18.60;99.90;;;;;;5093754;28;19924;-84
2023/07/16 08:02:18;;;;;;;;;;;18.50;99.90;;;;;;5086628;28;19928;-85
2023/07/16 08:04:44;;;;;;;;;;;18.50;99.90;;;;;;5093992;28;20310;-86
2023/07/16 08:07:09;;;;;;;;;;;18.50;99.90;;;;;;5110494;28;19938;-87
2023/07/16 08:09:36;;;;;;;;;;;18.60;99.90;;;;;;5086228;28;19928;-85
2023/07/16 08:12:01;;;;;;;;;;;18.70;99.90;;;;;;5075402;28;19974;-86
2023/07/16 08:14:28;;;;;;;;;;;18.70;99.90;;;;;;5093150;28;19932;-84
2023/07/16 08:16:54;;;;;;;;;;;18.70;99.90;;;;;;5093501;28;20034;-84
2023/07/16 08:19:19;;;;;;;;;;;18.70;99.90;;;;;;5076463;28;19928;-85
2023/07/16 08:21:45;;;;;;;;;;;18.60;99.90;;;;;;5075582;28;20010;-85
2023/07/16 08:24:11;;;;;;;;;;;18.60;99.90;;;;;;5093318;28;19939;-87
2023/07/16 08:26:36;;;;;;;;;;;18.50;99.90;;;;;;5060977;28;19924;-86
2023/07/16 08:29:03;;;;;;;;;;;18.30;99.90;;;;;;5080199;28;19949;-88
2023/07/16 08:31:29;;;;;;;;;;;18.20;99.90;;;;;;5117492;28;19966;-84
2023/07/16 08:33:54;;;;;;;;;;;18.20;99.90;;;;;;5113571;28;19924;-85
2023/07/16 08:36:20;;;;;;;;;;;18.10;99.90;;;;;;5082018;28;19924;-84
2023/07/16 08:38:46;;;;;;;;;;;18.10;99.90;;;;;;5101302;28;19985;-86
2023/07/16 08:41:11;;;;;;;;;;;18.00;99.90;;;;;;5097184;28;20336;-85
2023/07/16 08:43:38;;;;;;;;;;;18.20;99.90;;;;;;5094812;28;19932;-85
2023/07/16 08:46:06;;;;;;;;;;;18.40;99.90;;;;;;5093161;28;19988;-87
2023/07/16 08:48:32;;;;;;;;;;;18.60;99.90;;;;;;5076327;28;19931;-86
2023/07/16 08:50:58;;;;;;;;;;;18.80;99.90;;;;;;5075687;28;19924;-85
2023/07/16 08:53:24;;;;;;;;;;;19.20;99.90;;;;;;5059061;28;19924;-85
2023/07/16 08:55:50;;;;;;;;;;;19.40;99.90;;;;;;5074882;28;19924;-84
2023/07/16 08:58:15;;;;;;;;;;;19.60;99.90;;;;;;5075723;28;19981;-84
2023/07/16 09:00:42;;;;;;;;;;;19.80;99.90;;;;;;5056723;28;20243;-85
2023/07/16 09:03:09;;;;;;;;;;;19.80;99.90;;;;;;5109374;28;20380;-85
2023/07/16 09:05:36;;;;;;;;;;;19.70;99.90;;;;;;5075768;28;19924;-86
2023/07/16 09:08:02;;;;;;;;;;;19.70;99.90;;;;;;5092643;28;20330;-86
2023/07/16 09:10:27;;;;;;;;;;;19.80;99.90;;;;;;5075020;28;19928;-85
2023/07/16 09:12:55;;;;;;;;;;;19.80;99.90;;;;;;5091622;28;19925;-86
2023/07/16 09:15:21;;;;;;;;;;;19.90;99.90;;;;;;5109618;28;19949;-85
2023/07/16 09:17:48;;;;;;;;;;;20.00;99.90;;;;;;5072094;28;20291;-85
2023/07/16 09:20:17;;;;;;;;;;;20.10;99.90;;;;;;5126478;28;20283;-85
2023/07/16 09:22:43;;;;;;;;;;;20.20;99.90;;;;;;5080373;28;19925;-85
2023/07/16 09:25:09;;;;;;;;;;;20.10;99.90;;;;;;5071487;28;19931;-88
2023/07/16 09:27:34;;;;;;;;;;;19.90;99.90;;;;;;5074851;28;19931;-86
2023/07/16 09:30:02;;;;;;;;;;;19.70;99.90;;;;;;5058907;28;20034;-85
2023/07/16 09:32:39;;;;;;;;;;;19.50;99.90;;;;;;5075146;28;20324;-85
2023/07/16 09:35:15;;;;;;;;;;;19.30;99.90;;;;;;5075585;28;20011;-86
2023/07/16 09:37:41;;;;;;;;;;;19.20;99.90;;;;;;5109046;28;19924;-86
2023/07/16 09:40:09;;;;;;;;;;;19.20;99.90;;;;;;5092256;28;19928;-87
2023/07/16 09:42:39;;;;;;;;;;;19.30;99.90;;;;;;5108367;28;19924;-86
2023/07/16 09:45:22;;;;;;;;;;;19.30;99.90;;;;;;5100582;28;19925;-87
2023/07/16 09:47:48;;;;;;;;;;;19.30;99.90;;;;;;5088024;28;19931;-85
2023/07/16 09:50:14;;;;;;;;;;;19.40;99.90;;;;;;5092260;28;19924;-85
2023/07/16 09:52:42;;;;;;;;;;;19.50;99.90;;;;;;5091348;28;19924;-85
2023/07/16 09:55:11;;;;;;;;;;;19.60;99.90;;;;;;5075252;28;19932;-86
2023/07/16 09:57:41;;;;;;;;;;;19.50;99.90;;;;;;5099451;28;19932;-86
2023/07/16 10:00:15;;;;;;;;;;;19.60;99.90;;;;;;5074410;28;20280;-86
2023/07/16 10:02:43;;;;;;;;;;;19.80;99.90;;;;;;5109296;28;20008;-86
2023/07/16 10:05:13;;;;;;;;;;;19.90;99.90;;;;;;5092132;28;19975;-88
2023/07/16 10:07:39;;;;;;;;;;;20.00;99.90;;;;;;5076905;28;20367;-86
2023/07/16 10:10:09;;;;;;;;;;;20.10;99.90;;;;;;5097703;28;19998;-86
2023/07/16 10:12:35;;;;;;;;;;;20.10;99.90;;;;;;5082023;28;19928;-87
2023/07/16 10:15:04;;;;;;;;;;;20.10;99.90;;;;;;5104247;28;19924;-87
2023/07/16 10:17:33;;;;;;;;;;;20.00;99.90;;;;;;5096011;28;19931;-88
2023/07/16 10:20:03;;;;;;;;;;;19.90;99.90;;;;;;5096079;28;19924;-86
2023/07/16 10:22:38;;;;;;;;;;;20.00;99.90;;;;;;5078593;28;19931;-86
2023/07/16 10:25:23;;;;;;;;;;;20.00;99.90;;;;;;5078504;28;20375;-87
2023/07/16 10:27:50;;;;;;;;;;;20.20;99.90;;;;;;5067385;28;20010;-87
2023/07/16 10:30:19;;;;;;;;;;;20.40;99.90;;;;;;5078074;28;19924;-87
2023/07/16 10:32:46;;;;;;;;;;;20.50;99.90;;;;;;5098316;27;20023;-87
2023/07/16 10:35:12;;;;;;;;;;;20.70;99.90;;;;;;5078758;28;20015;-86
2023/07/16 10:37:38;;;;;;;;;;;20.70;99.90;;;;;;5101559;28;19936;-87
2023/07/16 10:40:10;;;;;;;;;;;20.60;99.90;;;;;;5113061;27;20272;-88
2023/07/16 10:42:35;;;;;;;;;;;20.40;99.90;;;;;;5111478;28;19974;-84
2023/07/16 10:45:02;;;;;;;;;;;20.30;99.90;;;;;;5078195;28;19928;-85
2023/07/16 10:47:31;;;;;;;;;;;20.10;99.90;;;;;;5077912;28;19924;-84
2023/07/16 10:49:56;;;;;;;;;;;20.10;99.90;;;;;;5078326;28;19957;-85
2023/07/16 10:52:22;;;;;;;;;;;20.20;99.90;;;;;;5077499;28;19924;-86
2023/07/16 10:54:49;;;;;;;;;;;20.40;99.90;;;;;;5078173;28;20014;-85
2023/07/16 10:57:16;;;;;;;;;;;20.40;99.90;;;;;;5110901;28;20368;-85
2023/07/16 10:59:43;;;;;;;;;;;20.40;99.90;;;;;;5076823;28;19924;-85
2023/07/16 11:02:13;;;;;;;;;;;20.50;99.90;;;;;;5095065;28;19924;-86
2023/07/16 11:04:39;;;;;;;;;;;20.60;99.90;;;;;;5077980;28;19928;-85
2023/07/16 11:07:06;;;;;;;;;;;20.70;99.90;;;;;;5111711;28;19944;-85
2023/07/16 11:09:31;;;;;;;;;;;20.70;99.90;;;;;;5061203;28;20372;-86
2023/07/16 11:12:04;;;;;;;;;;;20.90;99.90;;;;;;5076730;28;19935;-86
2023/07/16 11:14:30;;;;;;;;;;;20.90;99.90;;;;;;5078258;28;19924;-86
2023/07/16 11:17:03;;;;;;;;;;;20.80;99.90;;;;;;5096133;28;19931;-86
2023/07/16 11:19:30;;;;;;;;;;;21.00;99.90;;;;;;5079818;28;20288;-86
2023/07/16 11:21:56;;;;;;;;;;;21.00;99.90;;;;;;5096063;28;19954;-85
2023/07/16 11:24:21;;;;;;;;;;;20.90;99.90;;;;;;5097156;28;19924;-84
2023/07/16 11:26:51;;;;;;;;;;;20.80;99.90;;;;;;5060956;28;19928;-86
2023/07/16 11:29:23;;;;;;;;;;;20.40;99.90;;;;;;5112727;27;20368;-85
2023/07/16 11:31:49;;;;;;;;;;;20.30;99.90;;;;;;5077625;28;19924;-86
2023/07/16 11:34:19;;;;;;;;;;;20.10;99.90;;;;;;5078026;28;19951;-85
2023/07/16 11:36:45;;;;;;;;;;;20.00;99.90;;;;;;5110995;28;19924;-85
2023/07/16 11:39:11;;;;;;;;;;;20.30;99.90;;;;;;5116252;28;19925;-86
2023/07/16 11:41:37;;;;;;;;;;;20.50;99.90;;;;;;5103219;28;20283;-85
2023/07/16 11:44:03;;;;;;;;;;;20.50;99.90;;;;;;5110038;28;19935;-86
2023/07/16 11:46:34;;;;;;;;;;;20.50;99.90;;;;;;5120403;28;19977;-85
2023/07/16 11:49:01;;;;;;;;;;;20.30;99.90;;;;;;5115816;28;19931;-85
2023/07/16 11:51:26;;;;;;;;;;;20.30;99.90;;;;;;5112482;28;20015;-85
2023/07/16 11:53:54;;;;;;;;;;;20.30;99.90;;;;;;5096706;28;19968;-85
2023/07/16 11:56:19;;;;;;;;;;;20.20;99.90;;;;;;5093383;28;19924;-85
2023/07/16 11:58:45;;;;;;;;;;;20.10;99.90;;;;;;5084170;28;19981;-86
2023/07/16 12:01:11;;;;;;;;;;;20.00;99.90;;;;;;5075251;28;19932;-85
2023/07/16 12:03:37;;;;;;;;;;;20.00;99.90;;;;;;5093234;28;19928;-84
2023/07/16 12:06:02;;;;;;;;;;;20.00;99.90;;;;;;5076258;28;19928;-86
2023/07/16 12:08:29;;;;;;;;;;;20.10;99.90;;;;;;5093426;28;19982;-87
2023/07/16 12:10:55;;;;;;;;;;;20.30;99.90;;;;;;5092948;28;19969;-87
2023/07/16 12:13:20;;;;;;;;;;;20.30;99.90;;;;;;5076133;28;19924;-87
2023/07/16 12:15:46;;;;;;;;;;;20.40;99.90;;;;;;5109106;28;19927;-85
2023/07/16 12:18:11;;;;;;;;;;;20.50;99.90;;;;;;5090887;28;19965;-86
2023/07/16 12:20:38;;;;;;;;;;;20.40;99.90;;;;;;5076392;28;19986;-86
2023/07/16 12:23:03;;;;;;;;;;;20.40;99.90;;;;;;5110166;28;20010;-85
2023/07/16 12:25:29;;;;;;;;;;;20.10;99.90;;;;;;5075911;28;20014;-86
2023/07/16 12:27:57;;;;;;;;;;;20.10;99.90;;;;;;5108173;28;20381;-86
2023/07/16 12:30:23;;;;;;;;;;;20.10;99.90;;;;;;5105271;28;19971;-86
2023/07/16 12:32:49;;;;;;;;;;;20.40;99.90;;;;;;5109844;28;20001;-84
2023/07/16 12:35:14;;;;;;;;;;;20.60;99.90;;;;;;5093073;28;19924;-85
2023/07/16 12:37:40;;;;;;;;;;;20.70;99.90;;;;;;5109993;28;19929;-86
2023/07/16 12:40:06;;;;;;;;;;;20.80;99.90;;;;;;5076134;28;19924;-84
2023/07/16 12:42:32;;;;;;;;;;;20.70;99.90;;;;;;5091915;28;19928;-86
2023/07/16 12:44:58;;;;;;;;;;;20.60;99.90;;;;;;5059324;28;19924;-87
2023/07/16 12:47:24;;;;;;;;;;;20.40;99.90;;;;;;5050795;28;20347;-86
2023/07/16 12:49:55;;;;;;;;;;;20.30;99.90;;;;;;5076987;28;19989;-86
2023/07/16 12:52:21;;;;;;;;;;;20.40;99.90;;;;;;5092526;28;20372;-85
2023/07/16 12:54:46;;;;;;;;;;;20.50;99.90;;;;;;5109816;28;20280;-85
2023/07/16 12:57:12;;;;;;;;;;;20.80;99.90;;;;;;5091651;28;19931;-87
2023/07/16 12:59:40;;;;;;;;;;;20.90;99.90;;;;;;5109957;28;19924;-86
2023/07/16 13:02:06;;;;;;;;;;;21.10;99.90;;;;;;5100495;28;19924;-86
2023/07/16 13:04:32;;;;;;;;;;;21.10;99.90;;;;;;5092625;28;19932;-86
2023/07/16 13:06:57;;;;;;;;;;;21.00;99.90;;;;;;5075721;28;20401;-85
2023/07/16 13:09:23;;;;;;;;;;;20.80;99.90;;;;;;5059097;28;19924;-85
2023/07/16 13:11:48;;;;;;;;;;;20.70;99.90;;;;;;5057594;28;19982;-85
2023/07/16 13:14:14;;;;;;;;;;;20.50;99.90;;;;;;5092549;28;19967;-86
2023/07/16 13:16:40;;;;;;;;;;;20.70;99.90;;;;;;5109294;28;19924;-85
2023/07/16 13:19:05;;;;;;;;;;;20.70;99.90;;;;;;5058878;28;19924;-86
2023/07/16 13:21:31;;;;;;;;;;;20.90;99.90;;;;;;5109172;28;19932;-86
2023/07/16 13:23:57;;;;;;;;;;;21.20;99.90;;;;;;5109753;28;20417;-85
2023/07/16 13:26:22;;;;;;;;;;;21.50;99.90;;;;;;5074729;28;19928;-85
2023/07/16 13:28:48;;;;;;;;;;;21.70;99.90;;;;;;5058713;28;20416;-87
2023/07/16 13:31:13;;;;;;;;;;;21.80;99.90;;;;;;5075619;28;19924;-86
2023/07/16 13:33:41;;;;;;;;;;;21.80;99.90;;;;;;5075107;28;19928;-86
2023/07/16 13:36:07;;;;;;;;;;;21.70;99.90;;;;;;5092344;28;19928;-86
2023/07/16 13:38:33;;;;;;;;;;;21.70;99.90;;;;;;5092295;28;20279;-86
2023/07/16 13:40:58;;;;;;;;;;;21.50;99.90;;;;;;5102480;28;20037;-86
2023/07/16 13:43:24;;;;;;;;;;;21.30;99.90;;;;;;5061215;28;19932;-86
2023/07/16 13:45:50;;;;;;;;;;;21.10;99.90;;;;;;5062203;28;19924;-87
2023/07/16 13:48:15;;;;;;;;;;;21.20;99.90;;;;;;5079385;28;19924;-85
2023/07/16 13:50:44;;;;;;;;;;;21.30;99.90;;;;;;5096443;28;19928;-85
2023/07/16 13:53:10;;;;;;;;;;;21.30;99.90;;;;;;5078753;28;19946;-85
2023/07/16 13:55:35;;;;;;;;;;;21.30;99.90;;;;;;5095384;28;20368;-86
2023/07/16 13:58:01;;;;;;;;;;;21.20;99.90;;;;;;5095633;28;19924;-85
2023/07/16 14:00:27;;;;;;;;;;;21.50;99.90;;;;;;5096144;28;20329;-87
2023/07/16 14:02:52;;;;;;;;;;;21.40;99.90;;;;;;5079054;28;20033;-87
2023/07/16 14:05:20;;;;;;;;;;;21.40;99.90;;;;;;5062319;28;19963;-86
2023/07/16 14:07:46;;;;;;;;;;;21.20;99.90;;;;;;5062549;28;20338;-85
2023/07/16 14:10:12;;;;;;;;;;;21.20;99.90;;;;;;5095786;28;19935;-86
2023/07/16 14:12:38;;;;;;;;;;;21.10;99.90;;;;;;5061211;28;19924;-86
2023/07/16 14:15:06;;;;;;;;;;;21.00;99.90;;;;;;5086352;28;20019;-85